FlightSource - Aviation Photo Database

World Wide Airport Lookup


Search by ICAO
Or
Search by City

FlightSource.ca - Aviation Photo Database - Thyna Airport Information
Airport Identification
Name: Thyna Airport
ICAO: DTTX
IATA: SFA
Airport Location
City:
Region: 61
Country: Tunisia
Continent: Africa
Latitude: 34.718
Longitude: 10.691
Airport Information
Type: Medium Airport
Elevation: 85 Feet ASL
Flight Status: DTTX
More Info: DTTX
Airport Weather    
Metar: DTTX 200800Z 20004KT 170V260 7000 SCT020 26/14 Q1012
TAF:


Advertisement